Raybon, Georgia
Current Conditions -  °F | °C
As of 5:15 PM on Saturday 25 Oct 2014 (Local Time) from KAYS Reporting Station
Clear Clear  
Wind Chill: 80°   Ceiling: Unl
Heat Index: 80°   Visibility: 10mi
Dew Point: 49°   Wind: 6mph
Humidity: 34%   Direction: 10°N
Pressure: 29.96"   Gusts: NA
Location:  31.1753°N, 81.969°W
Report Text: KAYS 252115Z AUTO 01005KT 10SM CLR 27/10 A2996 RMK AO2 T02680097
Loading
Personal Weather Stations






























Interactive Weather Map
Tropical Storm Tracking
New forecast layout! Learn more

10-Day Weather Forecast

Advertisements
Track Severe Weather on mobile